sensor_id;sensor_type;location;lat;lon;timestamp;pressure;altitude;pressure_sealevel;temperature;humidity
69187;BME280;56301;56.864;60.554;2023-05-03T00:00:55;99144.34;;;25.04;36.31
69187;BME280;56301;56.864;60.554;2023-05-03T00:03:18;99152.47;;;25.04;36.45
69187;BME280;56301;56.864;60.554;2023-05-03T00:05:40;99145.38;;;25.03;35.66
69187;BME280;56301;56.864;60.554;2023-05-03T00:08:03;99154.34;;;25.04;35.76
69187;BME280;56301;56.864;60.554;2023-05-03T00:10:25;99150.97;;;25.02;36.74
69187;BME280;56301;56.864;60.554;2023-05-03T00:12:48;99157.25;;;25.02;36.29
69187;BME280;56301;56.864;60.554;2023-05-03T00:15:10;99155.53;;;25.01;36.30
69187;BME280;56301;56.864;60.554;2023-05-03T00:17:33;99164.50;;;25.02;36.56
69187;BME280;56301;56.864;60.554;2023-05-03T00:19:55;99161.97;;;25.00;36.56
69187;BME280;56301;56.864;60.554;2023-05-03T00:22:18;99157.59;;;24.99;36.16
69187;BME280;56301;56.864;60.554;2023-05-03T00:24:40;99164.69;;;25.00;35.91
69187;BME280;56301;56.864;60.554;2023-05-03T00:27:03;99167.38;;;25.00;36.66
69187;BME280;56301;56.864;60.554;2023-05-03T00:29:25;99159.44;;;24.98;36.73
69187;BME280;56301;56.864;60.554;2023-05-03T00:31:48;99161.97;;;25.00;36.45
69187;BME280;56301;56.864;60.554;2023-05-03T00:34:10;99166.56;;;25.00;36.55
69187;BME280;56301;56.864;60.554;2023-05-03T00:36:33;99162.16;;;24.98;36.98
69187;BME280;56301;56.864;60.554;2023-05-03T00:38:55;99160.28;;;24.99;36.42
69187;BME280;56301;56.864;60.554;2023-05-03T00:41:18;99155.88;;;24.98;36.29
69187;BME280;56301;56.864;60.554;2023-05-03T00:43:40;99159.63;;;24.97;36.58
69187;BME280;56301;56.864;60.554;2023-05-03T00:46:03;99160.44;;;24.97;36.09
69187;BME280;56301;56.864;60.554;2023-05-03T00:48:26;99164.19;;;24.96;37.16
69187;BME280;56301;56.864;60.554;2023-05-03T00:50:49;99162.16;;;24.98;35.91
69187;BME280;56301;56.864;60.554;2023-05-03T00:53:11;99163.00;;;24.99;36.79
69187;BME280;56301;56.864;60.554;2023-05-03T00:55:34;99167.38;;;25.00;36.46
69187;BME280;56301;56.864;60.554;2023-05-03T00:57:57;99166.56;;;25.00;36.86
69187;BME280;56301;56.864;60.554;2023-05-03T01:00:20;99168.22;;;25.01;36.70
69187;BME280;56301;56.864;60.554;2023-05-03T01:02:43;99169.25;;;25.00;36.33
69187;BME280;56301;56.864;60.554;2023-05-03T01:05:05;99168.41;;;24.99;36.42
69187;BME280;56301;56.864;60.554;2023-05-03T01:12:51;99178.41;;;24.98;36.46
69187;BME280;56301;56.864;60.554;2023-05-03T01:15:16;99185.50;;;25.00;36.22
69187;BME280;56301;56.864;60.554;2023-05-03T01:17:49;99183.63;;;25.00;36.15
69187;BME280;56301;56.864;60.554;2023-05-03T01:20:12;99180.09;;;25.00;37.02
69187;BME280;56301;56.864;60.554;2023-05-03T01:27:29;99189.22;;;24.98;37.12
69187;BME280;56301;56.864;60.554;2023-05-03T01:29:52;99188.56;;;24.96;36.47
69187;BME280;56301;56.864;60.554;2023-05-03T01:32:17;99193.78;;;24.98;36.11
69187;BME280;56301;56.864;60.554;2023-05-03T01:34:43;99184.66;;;24.99;36.03
69187;BME280;56301;56.864;60.554;2023-05-03T01:37:09;99189.38;;;24.97;36.22
69187;BME280;56301;56.864;60.554;2023-05-03T01:39:36;99183.81;;;24.98;36.61
69187;BME280;56301;56.864;60.554;2023-05-03T01:41:59;99200.91;;;24.99;36.46
69187;BME280;56301;56.864;60.554;2023-05-03T01:44:22;99196.31;;;25.00;36.57
69187;BME280;56301;56.864;60.554;2023-05-03T01:46:46;99195.50;;;24.99;36.42
69187;BME280;56301;56.864;60.554;2023-05-03T01:49:08;99192.78;;;24.99;36.91
69187;BME280;56301;56.864;60.554;2023-05-03T01:51:31;99191.75;;;25.00;36.40
69187;BME280;56301;56.864;60.554;2023-05-03T01:53:53;99198.00;;;25.01;36.26
69187;BME280;56301;56.864;60.554;2023-05-03T01:56:16;99203.41;;;25.01;36.48
69187;BME280;56301;56.864;60.554;2023-05-03T01:58:38;99207.16;;;25.00;36.90
69187;BME280;56301;56.864;60.554;2023-05-03T02:01:02;99207.81;;;25.02;36.67
69187;BME280;56301;56.864;60.554;2023-05-03T02:03:25;99204.25;;;25.01;37.19
69187;BME280;56301;56.864;60.554;2023-05-03T02:05:47;99205.09;;;25.02;36.89
69187;BME280;56301;56.864;60.554;2023-05-03T02:08:10;99212.22;;;25.03;36.49
69187;BME280;56301;56.864;60.554;2023-05-03T02:10:32;99214.94;;;25.03;36.71
69187;BME280;56301;56.864;60.554;2023-05-03T02:12:55;99215.78;;;25.03;36.90
69187;BME280;56301;56.864;60.554;2023-05-03T02:15:18;99210.16;;;25.05;36.68
69187;BME280;56301;56.864;60.554;2023-05-03T02:17:41;99201.06;;;24.97;36.63
69187;BME280;56301;56.864;60.554;2023-05-03T02:20:04;99221.84;;;25.05;36.17
69187;BME280;56301;56.864;60.554;2023-05-03T02:22:27;99201.22;;;25.04;36.54
69187;BME280;56301;56.864;60.554;2023-05-03T02:24:50;99214.09;;;25.02;37.30
69187;BME280;56301;56.864;60.554;2023-05-03T02:27:12;99213.06;;;25.03;36.50
69187;BME280;56301;56.864;60.554;2023-05-03T02:29:35;99220.16;;;25.04;37.25
69187;BME280;56301;56.864;60.554;2023-05-03T02:32:00;99206.63;;;25.04;36.98
69187;BME280;56301;56.864;60.554;2023-05-03T02:34:22;99214.75;;;25.04;37.13
69187;BME280;56301;56.864;60.554;2023-05-03T02:36:47;99218.28;;;25.05;37.00
69187;BME280;56301;56.864;60.554;2023-05-03T02:39:10;99228.97;;;25.06;36.97
69187;BME280;56301;56.864;60.554;2023-05-03T02:41:33;99224.38;;;25.07;37.43
69187;BME280;56301;56.864;60.554;2023-05-03T02:43:56;99232.31;;;25.08;36.39
69187;BME280;56301;56.864;60.554;2023-05-03T02:46:20;99226.91;;;25.08;36.42
69187;BME280;56301;56.864;60.554;2023-05-03T02:48:45;99222.34;;;25.09;36.99
69187;BME280;56301;56.864;60.554;2023-05-03T02:51:07;99223.06;;;25.11;37.08
69187;BME280;56301;56.864;60.554;2023-05-03T02:53:30;99225.56;;;25.12;37.61
69187;BME280;56301;56.864;60.554;2023-05-03T02:55:56;99230.63;;;25.15;36.17
69187;BME280;56301;56.864;60.554;2023-05-03T02:58:18;99226.25;;;25.14;37.15
69187;BME280;56301;56.864;60.554;2023-05-03T03:00:41;99223.34;;;25.16;37.00
69187;BME280;56301;56.864;60.554;2023-05-03T03:03:03;99217.78;;;25.17;36.77
69187;BME280;56301;56.864;60.554;2023-05-03T03:05:26;99226.56;;;25.19;36.70
69187;BME280;56301;56.864;60.554;2023-05-03T03:07:48;99228.28;;;25.20;37.23
69187;BME280;56301;56.864;60.554;2023-05-03T03:10:12;99231.81;;;25.21;36.29
69187;BME280;56301;56.864;60.554;2023-05-03T03:12:35;99228.91;;;25.23;36.33
69187;BME280;56301;56.864;60.554;2023-05-03T03:15:00;99227.25;;;25.21;35.94
69187;BME280;56301;56.864;60.554;2023-05-03T03:17:25;99230.59;;;25.24;36.45
69187;BME280;56301;56.864;60.554;2023-05-03T03:19:48;99227.72;;;25.25;36.32
69187;BME280;56301;56.864;60.554;2023-05-03T03:22:10;99232.31;;;25.25;35.96
69187;BME280;56301;56.864;60.554;2023-05-03T03:24:34;99229.41;;;25.26;36.92
69187;BME280;56301;56.864;60.554;2023-05-03T03:26:56;99234.66;;;25.28;36.58
69187;BME280;56301;56.864;60.554;2023-05-03T03:29:20;99238.03;;;25.30;36.68
69187;BME280;56301;56.864;60.554;2023-05-03T03:31:43;99237.97;;;25.38;36.55
69187;BME280;56301;56.864;60.554;2023-05-03T03:34:06;99239.69;;;25.39;36.08
69187;BME280;56301;56.864;60.554;2023-05-03T03:36:28;99237.81;;;25.39;36.50
69187;BME280;56301;56.864;60.554;2023-05-03T03:38:51;99229.69;;;25.39;36.52
69187;BME280;56301;56.864;60.554;2023-05-03T03:41:17;99241.03;;;25.43;35.87
69187;BME280;56301;56.864;60.554;2023-05-03T03:43:41;99240.69;;;25.46;36.23
69187;BME280;56301;56.864;60.554;2023-05-03T03:46:09;99240.69;;;25.46;36.40
69187;BME280;56301;56.864;60.554;2023-05-03T03:48:32;99232.34;;;25.48;36.31
69187;BME280;56301;56.864;60.554;2023-05-03T03:50:54;99242.84;;;25.51;36.06
69187;BME280;56301;56.864;60.554;2023-05-03T03:53:22;99239.78;;;25.54;36.08
69187;BME280;56301;56.864;60.554;2023-05-03T03:55:44;99239.94;;;25.52;36.06
69187;BME280;56301;56.864;60.554;2023-05-03T03:58:07;99245.38;;;25.52;36.20
69187;BME280;56301;56.864;60.554;2023-05-03T04:00:29;99239.66;;;25.47;36.16
69187;BME280;56301;56.864;60.554;2023-05-03T04:03:00;99238.81;;;25.47;35.78
69187;BME280;56301;56.864;60.554;2023-05-03T04:05:23;99236.25;;;25.45;35.37
69187;BME280;56301;56.864;60.554;2023-05-03T04:07:45;99240.19;;;25.42;35.71
69187;BME280;56301;56.864;60.554;2023-05-03T04:10:08;99238.47;;;25.41;35.60
69187;BME280;56301;56.864;60.554;2023-05-03T04:12:33;99243.06;;;25.41;35.83
69187;BME280;56301;56.864;60.554;2023-05-03T04:14:56;99238.66;;;25.40;35.76
69187;BME280;56301;56.864;60.554;2023-05-03T04:17:18;99239.69;;;25.39;35.39
69187;BME280;56301;56.864;60.554;2023-05-03T04:19:41;99244.28;;;25.38;35.40
69187;BME280;56301;56.864;60.554;2023-05-03T04:22:04;99236.16;;;25.38;36.01
69187;BME280;56301;56.864;60.554;2023-05-03T04:24:26;99229.84;;;25.38;35.67
69187;BME280;56301;56.864;60.554;2023-05-03T04:26:49;99228.03;;;25.38;35.36
69187;BME280;56301;56.864;60.554;2023-05-03T04:29:17;99228.88;;;25.39;35.02
69187;BME280;56301;56.864;60.554;2023-05-03T04:31:40;99227.84;;;25.40;35.73
69187;BME280;56301;56.864;60.554;2023-05-03T04:34:03;99229.50;;;25.41;35.69
69187;BME280;56301;56.864;60.554;2023-05-03T04:36:27;99221.38;;;25.41;36.04
69187;BME280;56301;56.864;60.554;2023-05-03T04:38:51;99229.34;;;25.42;35.44
69187;BME280;56301;56.864;60.554;2023-05-03T04:41:13;99223.09;;;25.42;35.24
69187;BME280;56301;56.864;60.554;2023-05-03T04:43:36;99224.78;;;25.43;35.45
69187;BME280;56301;56.864;60.554;2023-05-03T04:45:59;99215.63;;;25.44;35.40
69187;BME280;56301;56.864;60.554;2023-05-03T04:48:23;99223.59;;;25.45;35.47
69187;BME280;56301;56.864;60.554;2023-05-03T04:50:45;99216.28;;;25.46;35.38
69187;BME280;56301;56.864;60.554;2023-05-03T04:53:10;99222.38;;;25.48;35.24
69187;BME280;56301;56.864;60.554;2023-05-03T04:55:36;99217.78;;;25.49;35.11
69187;BME280;56301;56.864;60.554;2023-05-03T04:58:00;99219.31;;;25.51;35.23
69187;BME280;56301;56.864;60.554;2023-05-03T05:00:23;99211.84;;;25.53;35.25
69187;BME280;56301;56.864;60.554;2023-05-03T05:02:51;99209.78;;;25.55;34.51
69187;BME280;56301;56.864;60.554;2023-05-03T05:05:13;99211.47;;;25.56;35.04
69187;BME280;56301;56.864;60.554;2023-05-03T05:07:37;99207.75;;;25.57;34.55
69187;BME280;56301;56.864;60.554;2023-05-03T05:09:59;99209.25;;;25.60;35.05
69187;BME280;56301;56.864;60.554;2023-05-03T05:12:22;99206.38;;;25.61;34.88
69187;BME280;56301;56.864;60.554;2023-05-03T05:14:45;99210.78;;;25.62;35.34
69187;BME280;56301;56.864;60.554;2023-05-03T05:17:07;99211.44;;;25.64;35.03
69187;BME280;56301;56.864;60.554;2023-05-03T05:19:30;99214.81;;;25.66;34.72
69187;BME280;56301;56.864;60.554;2023-05-03T05:21:53;99205.28;;;25.70;34.91
69187;BME280;56301;56.864;60.554;2023-05-03T05:24:17;99211.59;;;25.71;34.71
69187;BME280;56301;56.864;60.554;2023-05-03T05:26:40;99201.22;;;25.75;34.13
69187;BME280;56301;56.864;60.554;2023-05-03T05:29:04;99199.16;;;25.77;34.70
69187;BME280;56301;56.864;60.554;2023-05-03T05:31:26;99202.38;;;25.80;34.87
69187;BME280;56301;56.864;60.554;2023-05-03T05:33:49;99199.50;;;25.82;34.88
69187;BME280;56301;56.864;60.554;2023-05-03T05:36:13;99207.25;;;25.85;34.86
69187;BME280;56301;56.864;60.554;2023-05-03T05:38:36;99202.69;;;25.85;34.96
69187;BME280;56301;56.864;60.554;2023-05-03T05:40:58;99202.31;;;25.88;34.53
69187;BME280;56301;56.864;60.554;2023-05-03T05:43:21;99197.38;;;25.92;35.24
69187;BME280;56301;56.864;60.554;2023-05-03T05:45:44;99199.56;;;25.97;34.20
69187;BME280;56301;56.864;60.554;2023-05-03T05:48:08;99200.06;;;26.00;34.09
69187;BME280;56301;56.864;60.554;2023-05-03T05:50:30;99195.09;;;26.04;34.12
69187;BME280;56301;56.864;60.554;2023-05-03T05:52:57;99199.31;;;26.06;34.47
69187;BME280;56301;56.864;60.554;2023-05-03T05:55:23;99196.06;;;26.11;33.83
69187;BME280;56301;56.864;60.554;2023-05-03T05:57:46;99206.16;;;26.17;34.82
69187;BME280;56301;56.864;60.554;2023-05-03T06:00:10;99194.13;;;26.20;34.36
69187;BME280;56301;56.864;60.554;2023-05-03T06:02:36;99193.56;;;26.24;34.41
69187;BME280;56301;56.864;60.554;2023-05-03T06:04:59;99196.75;;;26.28;33.41
69187;BME280;56301;56.864;60.554;2023-05-03T06:07:21;99200.97;;;26.30;34.51
69187;BME280;56301;56.864;60.554;2023-05-03T06:09:44;99198.06;;;26.32;34.19
69187;BME280;56301;56.864;60.554;2023-05-03T06:12:09;99198.53;;;26.35;34.20
69187;BME280;56301;56.864;60.554;2023-05-03T06:14:33;99196.19;;;26.32;34.16
69187;BME280;56301;56.864;60.554;2023-05-03T06:16:55;99191.31;;;26.28;33.61
69187;BME280;56301;56.864;60.554;2023-05-03T06:19:18;99200.41;;;26.35;33.47
69187;BME280;56301;56.864;60.554;2023-05-03T06:21:41;99191.91;;;26.38;33.99
69187;BME280;56301;56.864;60.554;2023-05-03T06:24:03;99189.69;;;26.41;33.45
69187;BME280;56301;56.864;60.554;2023-05-03T06:26:26;99198.50;;;26.44;33.42
69187;BME280;56301;56.864;60.554;2023-05-03T06:28:48;99190.34;;;26.44;33.37
69187;BME280;56301;56.864;60.554;2023-05-03T06:31:11;99190.16;;;26.45;33.86
69187;BME280;56301;56.864;60.554;2023-05-03T06:33:34;99183.72;;;26.46;34.25
69187;BME280;56301;56.864;60.554;2023-05-03T06:35:56;99185.28;;;26.40;34.11
69187;BME280;56301;56.864;60.554;2023-05-03T06:38:19;99173.97;;;26.37;33.56
69187;BME280;56301;56.864;60.554;2023-05-03T06:40:43;99186.59;;;26.45;34.32
69187;BME280;56301;56.864;60.554;2023-05-03T06:43:08;99176.94;;;26.42;34.08
69187;BME280;56301;56.864;60.554;2023-05-03T06:45:37;99189.88;;;26.40;33.65
69187;BME280;56301;56.864;60.554;2023-05-03T06:48:00;99180.69;;;26.41;34.07
69187;BME280;56301;56.864;60.554;2023-05-03T06:50:23;99174.91;;;26.44;33.62
69187;BME280;56301;56.864;60.554;2023-05-03T06:52:45;99163.31;;;26.50;33.99
69187;BME280;56301;56.864;60.554;2023-05-03T06:55:08;99172.50;;;26.49;33.16
69187;BME280;56301;56.864;60.554;2023-05-03T06:57:31;99168.38;;;26.53;33.32
69187;BME280;56301;56.864;60.554;2023-05-03T06:59:53;99164.09;;;26.59;33.73
69187;BME280;56301;56.864;60.554;2023-05-03T07:02:17;99178.28;;;26.46;33.90
69187;BME280;56301;56.864;60.554;2023-05-03T07:04:39;99176.84;;;26.35;32.91
69187;BME280;56301;56.864;60.554;2023-05-03T07:07:02;99169.16;;;26.39;33.99
69187;BME280;56301;56.864;60.554;2023-05-03T07:09:24;99173.53;;;26.48;33.32
69187;BME280;56301;56.864;60.554;2023-05-03T07:11:47;99170.06;;;26.54;33.59
69187;BME280;56301;56.864;60.554;2023-05-03T07:14:10;99160.91;;;26.55;32.43
69187;BME280;56301;56.864;60.554;2023-05-03T07:16:32;99164.34;;;26.49;32.99
69187;BME280;56301;56.864;60.554;2023-05-03T07:18:55;99163.75;;;26.39;33.54
69187;BME280;56301;56.864;60.554;2023-05-03T07:21:18;99158.56;;;26.52;32.86
69187;BME280;56301;56.864;60.554;2023-05-03T07:23:40;99166.97;;;26.57;33.46
69187;BME280;56301;56.864;60.554;2023-05-03T07:26:03;99166.59;;;26.60;32.98
69187;BME280;56301;56.864;60.554;2023-05-03T07:28:25;99168.06;;;26.10;32.46
69187;BME280;56301;56.864;60.554;2023-05-03T07:30:48;99169.16;;;25.55;34.02
69187;BME280;56301;56.864;60.554;2023-05-03T07:33:10;99168.72;;;25.12;34.46
69187;BME280;56301;56.864;60.554;2023-05-03T07:35:33;99175.91;;;24.89;34.72
69187;BME280;56301;56.864;60.554;2023-05-03T07:37:55;99166.63;;;24.75;34.52
69187;BME280;56301;56.864;60.554;2023-05-03T07:40:18;99170.53;;;24.72;34.61
69187;BME280;56301;56.864;60.554;2023-05-03T07:42:41;99156.88;;;24.66;34.88
69187;BME280;56301;56.864;60.554;2023-05-03T07:45:03;99151.47;;;24.49;35.08
69187;BME280;56301;56.864;60.554;2023-05-03T07:47:26;99149.97;;;24.47;34.74
69187;BME280;56301;56.864;60.554;2023-05-03T07:49:49;99154.88;;;24.52;35.03
69187;BME280;56301;56.864;60.554;2023-05-03T07:52:11;99156.00;;;24.65;35.03
69187;BME280;56301;56.864;60.554;2023-05-03T07:54:34;99172.88;;;24.76;34.61
69187;BME280;56301;56.864;60.554;2023-05-03T07:56:56;99163.47;;;24.63;34.55
69187;BME280;56301;56.864;60.554;2023-05-03T07:59:18;99156.91;;;24.49;34.60
69187;BME280;56301;56.864;60.554;2023-05-03T08:01:41;99171.28;;;24.42;35.06
69187;BME280;56301;56.864;60.554;2023-05-03T08:04:03;99159.94;;;24.30;34.29
69187;BME280;56301;56.864;60.554;2023-05-03T08:06:26;99148.13;;;24.23;34.82
69187;BME280;56301;56.864;60.554;2023-05-03T08:08:48;99155.06;;;24.17;34.75
69187;BME280;56301;56.864;60.554;2023-05-03T08:11:11;99152.38;;;24.09;34.04
69187;BME280;56301;56.864;60.554;2023-05-03T08:13:33;99153.53;;;24.07;34.86
69187;BME280;56301;56.864;60.554;2023-05-03T08:15:56;99143.94;;;24.04;34.30
69187;BME280;56301;56.864;60.554;2023-05-03T08:18:19;99154.38;;;23.99;34.61
69187;BME280;56301;56.864;60.554;2023-05-03T08:20:41;99146.63;;;23.88;34.79
69187;BME280;56301;56.864;60.554;2023-05-03T08:23:04;99139.03;;;23.75;34.74
69187;BME280;56301;56.864;60.554;2023-05-03T08:25:26;99138.03;;;23.68;35.63
69187;BME280;56301;56.864;60.554;2023-05-03T08:27:49;99131.06;;;23.82;35.00
69187;BME280;56301;56.864;60.554;2023-05-03T08:30:11;99138.50;;;23.96;35.17
69187;BME280;56301;56.864;60.554;2023-05-03T08:32:34;99131.56;;;24.10;34.72
69187;BME280;56301;56.864;60.554;2023-05-03T08:34:56;99125.66;;;24.14;34.51
69187;BME280;56301;56.864;60.554;2023-05-03T08:37:19;99128.22;;;24.08;34.63
69187;BME280;56301;56.864;60.554;2023-05-03T08:39:41;99127.38;;;23.91;34.97
69187;BME280;56301;56.864;60.554;2023-05-03T08:42:07;99128.03;;;23.85;34.85
69187;BME280;56301;56.864;60.554;2023-05-03T08:44:29;99134.13;;;23.70;35.59
69187;BME280;56301;56.864;60.554;2023-05-03T08:46:53;99115.91;;;23.72;35.38
69187;BME280;56301;56.864;60.554;2023-05-03T08:49:19;99122.97;;;23.73;35.18
69187;BME280;56301;56.864;60.554;2023-05-03T08:51:42;99127.38;;;23.83;35.29
69187;BME280;56301;56.864;60.554;2023-05-03T08:54:05;99124.84;;;23.73;35.63
69187;BME280;56301;56.864;60.554;2023-05-03T08:56:28;99121.63;;;23.69;35.13
69187;BME280;56301;56.864;60.554;2023-05-03T08:58:51;99125.97;;;23.62;35.57
69187;BME280;56301;56.864;60.554;2023-05-03T09:01:13;99126.66;;;23.64;35.86
69187;BME280;56301;56.864;60.554;2023-05-03T09:03:35;99119.38;;;23.57;35.64
69187;BME280;56301;56.864;60.554;2023-05-03T09:05:58;99122.94;;;23.57;35.66
69187;BME280;56301;56.864;60.554;2023-05-03T09:08:20;99108.31;;;23.68;35.73
69187;BME280;56301;56.864;60.554;2023-05-03T09:10:43;99111.84;;;23.68;35.73
69187;BME280;56301;56.864;60.554;2023-05-03T09:13:06;99121.09;;;23.66;35.56
69187;BME280;56301;56.864;60.554;2023-05-03T09:15:29;99112.97;;;23.58;35.71
69187;BME280;56301;56.864;60.554;2023-05-03T09:18:33;99104.53;;;23.44;35.43
69187;BME280;56301;56.864;60.554;2023-05-03T09:20:38;99095.06;;;23.40;35.24
69187;BME280;56301;56.864;60.554;2023-05-03T09:23:00;99089.16;;;23.37;35.61
69187;BME280;56301;56.864;60.554;2023-05-03T09:25:23;99101.63;;;23.38;35.25
69187;BME280;56301;56.864;60.554;2023-05-03T09:27:47;99113.97;;;23.32;35.10
69187;BME280;56301;56.864;60.554;2023-05-03T09:30:21;99099.97;;;23.37;35.09
69187;BME280;56301;56.864;60.554;2023-05-03T09:32:47;99095.72;;;23.26;35.16
69187;BME280;56301;56.864;60.554;2023-05-03T09:37:35;99089.28;;;23.11;35.33
69187;BME280;56301;56.864;60.554;2023-05-03T09:40:04;99083.72;;;23.12;35.83
69187;BME280;56301;56.864;60.554;2023-05-03T09:42:27;99087.94;;;23.15;35.38
69187;BME280;56301;56.864;60.554;2023-05-03T09:44:49;99090.84;;;23.21;35.51
69187;BME280;56301;56.864;60.554;2023-05-03T09:47:31;99083.38;;;23.15;35.02
69187;BME280;56301;56.864;60.554;2023-05-03T09:50:10;99081.84;;;23.04;35.46
69187;BME280;56301;56.864;60.554;2023-05-03T09:52:32;99098.22;;;23.03;35.61
69187;BME280;56301;56.864;60.554;2023-05-03T09:54:55;99093.53;;;23.13;35.96
69187;BME280;56301;56.864;60.554;2023-05-03T09:57:18;99092.31;;;23.16;35.49
69187;BME280;56301;56.864;60.554;2023-05-03T09:59:42;99078.00;;;23.23;35.49
69187;BME280;56301;56.864;60.554;2023-05-03T10:02:06;99088.81;;;23.32;35.26
69187;BME280;56301;56.864;60.554;2023-05-03T10:04:33;99077.66;;;23.35;34.85
69187;BME280;56301;56.864;60.554;2023-05-03T10:06:58;99082.41;;;23.33;34.46
69187;BME280;56301;56.864;60.554;2023-05-03T10:09:21;99081.38;;;23.34;34.61
69187;BME280;56301;56.864;60.554;2023-05-03T10:11:52;99070.78;;;23.32;34.44
69187;BME280;56301;56.864;60.554;2023-05-03T10:14:15;99083.25;;;23.33;34.91
69187;BME280;56301;56.864;60.554;2023-05-03T10:16:38;99078.53;;;23.35;34.38
69187;BME280;56301;56.864;60.554;2023-05-03T10:19:12;99081.06;;;23.37;34.69
69187;BME280;56301;56.864;60.554;2023-05-03T10:24:16;99066.22;;;23.33;34.39
69187;BME280;56301;56.864;60.554;2023-05-03T10:26:39;99070.91;;;23.30;34.58
69187;BME280;56301;56.864;60.554;2023-05-03T10:29:02;99069.25;;;23.29;34.45
69187;BME280;56301;56.864;60.554;2023-05-03T10:34:51;99051.50;;;23.11;34.88
69187;BME280;56301;56.864;60.554;2023-05-03T10:36:52;99069.06;;;23.15;34.66
69187;BME280;56301;56.864;60.554;2023-05-03T10:39:15;99060.13;;;23.22;34.99
69187;BME280;56301;56.864;60.554;2023-05-03T10:41:37;99057.25;;;23.40;34.99
69187;BME280;56301;56.864;60.554;2023-05-03T10:44:00;99057.25;;;23.57;34.63
69187;BME280;56301;56.864;60.554;2023-05-03T10:46:29;99054.56;;;23.65;33.86
69187;BME280;56301;56.864;60.554;2023-05-03T10:49:13;99044.81;;;23.72;33.87
69187;BME280;56301;56.864;60.554;2023-05-03T10:51:35;99051.22;;;23.79;33.77
69187;BME280;56301;56.864;60.554;2023-05-03T10:53:57;99046.16;;;23.76;33.91
69187;BME280;56301;56.864;60.554;2023-05-03T10:56:20;99056.09;;;23.67;33.76
69187;BME280;56301;56.864;60.554;2023-05-03T10:58:43;99042.94;;;23.72;33.63
69187;BME280;56301;56.864;60.554;2023-05-03T11:01:06;99045.97;;;23.77;33.72
69187;BME280;56301;56.864;60.554;2023-05-03T11:03:33;99035.84;;;23.80;33.13
69187;BME280;56301;56.864;60.554;2023-05-03T11:05:57;99039.38;;;23.80;33.22
69187;BME280;56301;56.864;60.554;2023-05-03T11:08:20;99038.38;;;23.81;32.93
69187;BME280;56301;56.864;60.554;2023-05-03T11:10:43;99040.56;;;23.77;33.31
69187;BME280;56301;56.864;60.554;2023-05-03T11:13:06;99030.97;;;23.75;33.28
69187;BME280;56301;56.864;60.554;2023-05-03T11:15:28;99028.41;;;23.73;33.30
69187;BME280;56301;56.864;60.554;2023-05-03T11:17:51;99019.63;;;23.80;33.45
69187;BME280;56301;56.864;60.554;2023-05-03T11:20:13;99037.88;;;23.77;33.28
69187;BME280;56301;56.864;60.554;2023-05-03T11:22:36;99036.50;;;23.82;32.93
69187;BME280;56301;56.864;60.554;2023-05-03T11:24:59;99048.66;;;23.77;33.02
69187;BME280;56301;56.864;60.554;2023-05-03T11:27:24;99041.56;;;23.60;33.13
69187;BME280;56301;56.864;60.554;2023-05-03T11:29:47;99026.56;;;23.74;33.34
69187;BME280;56301;56.864;60.554;2023-05-03T11:32:10;99034.00;;;23.72;32.96
69187;BME280;56301;56.864;60.554;2023-05-03T11:34:32;99036.19;;;23.76;33.01
69187;BME280;56301;56.864;60.554;2023-05-03T11:36:56;99038.03;;;23.76;32.65
69187;BME280;56301;56.864;60.554;2023-05-03T11:39:18;99037.88;;;23.69;32.55
69187;BME280;56301;56.864;60.554;2023-05-03T11:41:41;99038.56;;;23.71;32.56
69187;BME280;56301;56.864;60.554;2023-05-03T11:44:03;99043.78;;;23.65;32.91
69187;BME280;56301;56.864;60.554;2023-05-03T11:46:26;99057.28;;;23.73;32.59
69187;BME280;56301;56.864;60.554;2023-05-03T11:48:49;99059.69;;;23.68;32.76
69187;BME280;56301;56.864;60.554;2023-05-03T11:51:11;99051.69;;;23.66;32.76
69187;BME280;56301;56.864;60.554;2023-05-03T11:53:34;99060.50;;;23.68;32.75
69187;BME280;56301;56.864;60.554;2023-05-03T11:55:57;99061.50;;;23.67;32.45
69187;BME280;56301;56.864;60.554;2023-05-03T11:58:22;99058.44;;;23.62;32.62
69187;BME280;56301;56.864;60.554;2023-05-03T12:00:45;99056.97;;;23.68;32.94
69187;BME280;56301;56.864;60.554;2023-05-03T12:03:08;99046.97;;;23.60;32.67
69187;BME280;56301;56.864;60.554;2023-05-03T12:05:31;99050.19;;;23.55;33.15
69187;BME280;56301;56.864;60.554;2023-05-03T12:07:54;99055.94;;;23.61;33.28
69187;BME280;56301;56.864;60.554;2023-05-03T12:10:17;99048.66;;;23.77;33.16
69187;BME280;56301;56.864;60.554;2023-05-03T12:12:39;99044.63;;;23.90;32.90
69187;BME280;56301;56.864;60.554;2023-05-03T12:15:02;99048.97;;;23.99;32.32
69187;BME280;56301;56.864;60.554;2023-05-03T12:17:37;99046.94;;;24.09;32.23
69187;BME280;56301;56.864;60.554;2023-05-03T12:20:16;99053.25;;;23.69;32.39
69187;BME280;56301;56.864;60.554;2023-05-03T12:22:40;99065.84;;;23.19;33.53
69187;BME280;56301;56.864;60.554;2023-05-03T12:25:02;99044.56;;;23.16;33.37
69187;BME280;56301;56.864;60.554;2023-05-03T12:27:25;99051.88;;;23.40;32.88
69187;BME280;56301;56.864;60.554;2023-05-03T12:29:47;99043.59;;;23.50;33.07
69187;BME280;56301;56.864;60.554;2023-05-03T12:32:10;99022.84;;;23.59;32.87
69187;BME280;56301;56.864;60.554;2023-05-03T12:34:32;99020.63;;;23.38;32.61
69187;BME280;56301;56.864;60.554;2023-05-03T12:36:55;99024.50;;;23.27;33.01
69187;BME280;56301;56.864;60.554;2023-05-03T12:39:17;99025.72;;;23.33;33.01
69187;BME280;56301;56.864;60.554;2023-05-03T12:41:40;99022.50;;;23.37;32.80
69187;BME280;56301;56.864;60.554;2023-05-03T12:44:02;99019.78;;;23.45;32.16
69187;BME280;56301;56.864;60.554;2023-05-03T12:46:24;99023.34;;;23.46;32.43
69187;BME280;56301;56.864;60.554;2023-05-03T12:48:47;99018.94;;;23.45;32.50